Terminal Aerodrome Forecast
Issued by NWS Tulsa, OK

Home | Current Version | Previous Version | Text Only | Print | Product List | Glossary On
Versions: 1 2 3 4 5 6 7 8 9 10 11 12 13 14 15 16
000
FTUS44 KTSA 292300
TAFTUL
TAF
KTUL 292320Z 3000/3024 VRB06KT P6SM BKN035
      TEMPO 3000/3003 BKN025
     FM300300 VRB03KT P6SM SCT035 BKN250
     FM301000 35009KT P6SM BKN025
      TEMPO 3010/3014 BKN015=

USA.gov is the U.S. government's official web portal to all federal, state and local government web resources and services.